sensor_id;sensor_type;location;lat;lon;timestamp;temperature;humidity
16728;DHT22;8482;54.396;18.590;2023-11-19T00:00:45;5.10;99.90
16728;DHT22;8482;54.396;18.590;2023-11-19T00:03:11;5.00;99.90
16728;DHT22;8482;54.396;18.590;2023-11-19T00:05:38;5.00;99.90
16728;DHT22;8482;54.396;18.590;2023-11-19T00:08:04;4.90;99.90
16728;DHT22;8482;54.396;18.590;2023-11-19T00:10:31;4.90;99.90
16728;DHT22;8482;54.396;18.590;2023-11-19T00:12:57;4.90;99.90
16728;DHT22;8482;54.396;18.590;2023-11-19T00:15:23;4.90;99.90
16728;DHT22;8482;54.396;18.590;2023-11-19T00:17:49;4.90;99.90
16728;DHT22;8482;54.396;18.590;2023-11-19T00:20:19;4.80;99.90
16728;DHT22;8482;54.396;18.590;2023-11-19T00:22:48;4.80;99.90
16728;DHT22;8482;54.396;18.590;2023-11-19T00:25:18;4.80;99.90
16728;DHT22;8482;54.396;18.590;2023-11-19T00:27:45;4.80;99.90
16728;DHT22;8482;54.396;18.590;2023-11-19T00:30:11;4.80;99.90
16728;DHT22;8482;54.396;18.590;2023-11-19T00:32:39;4.80;99.90
16728;DHT22;8482;54.396;18.590;2023-11-19T00:35:05;4.80;99.90
16728;DHT22;8482;54.396;18.590;2023-11-19T00:37:32;4.80;99.90
16728;DHT22;8482;54.396;18.590;2023-11-19T00:39:58;4.70;99.90
16728;DHT22;8482;54.396;18.590;2023-11-19T00:42:24;4.80;99.90
16728;DHT22;8482;54.396;18.590;2023-11-19T00:44:51;4.80;99.90
16728;DHT22;8482;54.396;18.590;2023-11-19T00:47:17;4.70;99.90
16728;DHT22;8482;54.396;18.590;2023-11-19T00:49:46;4.70;99.90
16728;DHT22;8482;54.396;18.590;2023-11-19T00:52:14;4.70;99.90
16728;DHT22;8482;54.396;18.590;2023-11-19T00:54:40;4.70;99.90
16728;DHT22;8482;54.396;18.590;2023-11-19T00:57:06;4.70;99.90
16728;DHT22;8482;54.396;18.590;2023-11-19T00:59:32;4.70;99.90
16728;DHT22;8482;54.396;18.590;2023-11-19T01:01:58;4.70;99.90
16728;DHT22;8482;54.396;18.590;2023-11-19T01:04:37;4.70;99.90
16728;DHT22;8482;54.396;18.590;2023-11-19T01:07:04;4.70;99.90
16728;DHT22;8482;54.396;18.590;2023-11-19T01:09:31;4.70;99.90
16728;DHT22;8482;54.396;18.590;2023-11-19T01:11:58;4.70;99.90
16728;DHT22;8482;54.396;18.590;2023-11-19T01:14:26;4.60;99.90
16728;DHT22;8482;54.396;18.590;2023-11-19T01:16:52;4.60;99.90
16728;DHT22;8482;54.396;18.590;2023-11-19T01:19:20;4.60;99.90
16728;DHT22;8482;54.396;18.590;2023-11-19T01:21:48;4.60;99.90
16728;DHT22;8482;54.396;18.590;2023-11-19T01:24:14;4.60;99.90
16728;DHT22;8482;54.396;18.590;2023-11-19T01:26:41;4.60;99.90
16728;DHT22;8482;54.396;18.590;2023-11-19T01:29:14;4.60;99.90
16728;DHT22;8482;54.396;18.590;2023-11-19T01:31:45;4.60;99.90
16728;DHT22;8482;54.396;18.590;2023-11-19T01:34:16;4.60;99.90
16728;DHT22;8482;54.396;18.590;2023-11-19T01:36:42;4.60;99.90
16728;DHT22;8482;54.396;18.590;2023-11-19T01:39:08;4.60;99.90
16728;DHT22;8482;54.396;18.590;2023-11-19T01:41:37;4.60;99.90
16728;DHT22;8482;54.396;18.590;2023-11-19T01:44:06;4.60;99.90
16728;DHT22;8482;54.396;18.590;2023-11-19T01:46:32;4.60;99.90
16728;DHT22;8482;54.396;18.590;2023-11-19T01:48:59;4.60;99.90
16728;DHT22;8482;54.396;18.590;2023-11-19T01:51:26;4.60;99.90
16728;DHT22;8482;54.396;18.590;2023-11-19T01:53:53;4.60;99.90
16728;DHT22;8482;54.396;18.590;2023-11-19T01:56:20;4.60;99.90
16728;DHT22;8482;54.396;18.590;2023-11-19T01:58:48;4.60;99.90
16728;DHT22;8482;54.396;18.590;2023-11-19T02:01:16;4.60;99.90
16728;DHT22;8482;54.396;18.590;2023-11-19T02:03:42;4.60;99.90
16728;DHT22;8482;54.396;18.590;2023-11-19T02:06:08;4.60;99.90
16728;DHT22;8482;54.396;18.590;2023-11-19T02:08:36;4.60;99.90
16728;DHT22;8482;54.396;18.590;2023-11-19T02:11:02;4.60;99.90
16728;DHT22;8482;54.396;18.590;2023-11-19T02:13:29;4.60;99.90
16728;DHT22;8482;54.396;18.590;2023-11-19T02:15:54;4.60;99.90
16728;DHT22;8482;54.396;18.590;2023-11-19T02:18:25;4.60;99.90
16728;DHT22;8482;54.396;18.590;2023-11-19T02:20:59;4.60;99.90
16728;DHT22;8482;54.396;18.590;2023-11-19T02:23:28;4.60;99.90
16728;DHT22;8482;54.396;18.590;2023-11-19T02:26:02;4.60;99.90
16728;DHT22;8482;54.396;18.590;2023-11-19T02:28:39;4.60;99.90
16728;DHT22;8482;54.396;18.590;2023-11-19T02:31:07;4.60;99.90
16728;DHT22;8482;54.396;18.590;2023-11-19T02:33:37;4.60;99.90
16728;DHT22;8482;54.396;18.590;2023-11-19T02:36:05;4.60;99.90
16728;DHT22;8482;54.396;18.590;2023-11-19T02:38:33;4.60;99.90
16728;DHT22;8482;54.396;18.590;2023-11-19T02:41:00;4.60;99.90
16728;DHT22;8482;54.396;18.590;2023-11-19T02:43:30;4.60;99.90
16728;DHT22;8482;54.396;18.590;2023-11-19T02:46:02;4.60;99.90
16728;DHT22;8482;54.396;18.590;2023-11-19T02:48:32;4.50;99.90
16728;DHT22;8482;54.396;18.590;2023-11-19T02:51:03;4.50;99.90
16728;DHT22;8482;54.396;18.590;2023-11-19T02:53:30;4.50;99.90
16728;DHT22;8482;54.396;18.590;2023-11-19T02:55:57;4.50;99.90
16728;DHT22;8482;54.396;18.590;2023-11-19T02:58:27;4.50;99.90
16728;DHT22;8482;54.396;18.590;2023-11-19T03:00:54;4.50;99.90
16728;DHT22;8482;54.396;18.590;2023-11-19T03:03:25;4.50;99.90
16728;DHT22;8482;54.396;18.590;2023-11-19T03:05:54;4.50;99.90
16728;DHT22;8482;54.396;18.590;2023-11-19T03:08:21;4.50;99.90
16728;DHT22;8482;54.396;18.590;2023-11-19T03:10:47;4.40;99.90
16728;DHT22;8482;54.396;18.590;2023-11-19T03:13:14;4.50;99.90
16728;DHT22;8482;54.396;18.590;2023-11-19T03:15:40;4.40;99.90
16728;DHT22;8482;54.396;18.590;2023-11-19T03:18:07;4.40;99.90
16728;DHT22;8482;54.396;18.590;2023-11-19T03:20:33;4.40;99.90
16728;DHT22;8482;54.396;18.590;2023-11-19T03:22:59;4.40;99.90
16728;DHT22;8482;54.396;18.590;2023-11-19T03:25:27;4.40;99.90
16728;DHT22;8482;54.396;18.590;2023-11-19T03:27:59;4.40;99.90
16728;DHT22;8482;54.396;18.590;2023-11-19T03:30:26;4.30;99.90
16728;DHT22;8482;54.396;18.590;2023-11-19T03:32:54;4.30;99.90
16728;DHT22;8482;54.396;18.590;2023-11-19T03:35:20;4.30;99.90
16728;DHT22;8482;54.396;18.590;2023-11-19T03:37:46;4.20;99.90
16728;DHT22;8482;54.396;18.590;2023-11-19T03:40:12;4.20;99.90
16728;DHT22;8482;54.396;18.590;2023-11-19T03:42:38;4.10;99.90
16728;DHT22;8482;54.396;18.590;2023-11-19T03:45:07;4.10;99.90
16728;DHT22;8482;54.396;18.590;2023-11-19T03:47:37;4.10;99.90
16728;DHT22;8482;54.396;18.590;2023-11-19T03:50:04;4.10;99.90
16728;DHT22;8482;54.396;18.590;2023-11-19T03:52:31;4.00;99.90
16728;DHT22;8482;54.396;18.590;2023-11-19T03:54:57;4.00;99.90
16728;DHT22;8482;54.396;18.590;2023-11-19T03:57:23;4.10;99.90
16728;DHT22;8482;54.396;18.590;2023-11-19T03:59:49;4.00;99.90
16728;DHT22;8482;54.396;18.590;2023-11-19T04:02:16;4.10;99.90
16728;DHT22;8482;54.396;18.590;2023-11-19T04:04:42;4.10;99.90
16728;DHT22;8482;54.396;18.590;2023-11-19T04:07:08;4.10;99.90
16728;DHT22;8482;54.396;18.590;2023-11-19T04:09:33;4.10;99.90
16728;DHT22;8482;54.396;18.590;2023-11-19T04:12:00;4.10;99.90
16728;DHT22;8482;54.396;18.590;2023-11-19T04:14:26;4.10;99.90
16728;DHT22;8482;54.396;18.590;2023-11-19T04:16:53;4.10;99.90
16728;DHT22;8482;54.396;18.590;2023-11-19T04:19:19;4.10;99.90
16728;DHT22;8482;54.396;18.590;2023-11-19T04:21:45;4.10;99.90
16728;DHT22;8482;54.396;18.590;2023-11-19T04:24:12;4.10;99.90
16728;DHT22;8482;54.396;18.590;2023-11-19T04:26:42;4.00;99.90
16728;DHT22;8482;54.396;18.590;2023-11-19T04:29:12;4.00;99.90
16728;DHT22;8482;54.396;18.590;2023-11-19T04:31:39;4.00;99.90
16728;DHT22;8482;54.396;18.590;2023-11-19T04:34:05;4.00;99.90
16728;DHT22;8482;54.396;18.590;2023-11-19T04:36:32;4.00;99.90
16728;DHT22;8482;54.396;18.590;2023-11-19T04:38:59;4.00;99.90
16728;DHT22;8482;54.396;18.590;2023-11-19T04:41:26;4.00;99.90
16728;DHT22;8482;54.396;18.590;2023-11-19T04:43:55;4.00;99.90
16728;DHT22;8482;54.396;18.590;2023-11-19T04:46:22;4.00;99.90
16728;DHT22;8482;54.396;18.590;2023-11-19T04:48:49;4.00;99.90
16728;DHT22;8482;54.396;18.590;2023-11-19T04:51:15;4.00;99.90
16728;DHT22;8482;54.396;18.590;2023-11-19T04:53:41;4.00;99.90
16728;DHT22;8482;54.396;18.590;2023-11-19T04:56:11;4.00;99.90
16728;DHT22;8482;54.396;18.590;2023-11-19T04:58:37;4.00;99.90
16728;DHT22;8482;54.396;18.590;2023-11-19T05:01:04;4.00;99.90
16728;DHT22;8482;54.396;18.590;2023-11-19T05:03:33;4.00;99.90
16728;DHT22;8482;54.396;18.590;2023-11-19T05:05:59;4.00;99.90
16728;DHT22;8482;54.396;18.590;2023-11-19T05:08:24;4.00;99.90
16728;DHT22;8482;54.396;18.590;2023-11-19T05:10:50;3.90;99.90
16728;DHT22;8482;54.396;18.590;2023-11-19T05:13:16;3.90;99.90
16728;DHT22;8482;54.396;18.590;2023-11-19T05:15:42;3.90;99.90
16728;DHT22;8482;54.396;18.590;2023-11-19T05:18:08;3.90;99.90
16728;DHT22;8482;54.396;18.590;2023-11-19T05:20:34;3.90;99.90
16728;DHT22;8482;54.396;18.590;2023-11-19T05:23:00;3.90;99.90
16728;DHT22;8482;54.396;18.590;2023-11-19T05:25:26;3.90;99.90
16728;DHT22;8482;54.396;18.590;2023-11-19T05:27:53;3.90;99.90
16728;DHT22;8482;54.396;18.590;2023-11-19T05:30:19;3.90;99.90
16728;DHT22;8482;54.396;18.590;2023-11-19T05:32:45;3.80;99.90
16728;DHT22;8482;54.396;18.590;2023-11-19T05:35:11;3.80;99.90
16728;DHT22;8482;54.396;18.590;2023-11-19T05:37:37;3.80;99.90
16728;DHT22;8482;54.396;18.590;2023-11-19T05:40:05;3.80;99.90
16728;DHT22;8482;54.396;18.590;2023-11-19T05:42:40;3.80;99.90
16728;DHT22;8482;54.396;18.590;2023-11-19T05:45:07;3.80;99.90
16728;DHT22;8482;54.396;18.590;2023-11-19T05:47:34;3.70;99.90
16728;DHT22;8482;54.396;18.590;2023-11-19T05:50:00;3.70;99.90
16728;DHT22;8482;54.396;18.590;2023-11-19T05:52:25;3.70;99.90
16728;DHT22;8482;54.396;18.590;2023-11-19T05:54:51;3.70;99.90
16728;DHT22;8482;54.396;18.590;2023-11-19T05:57:17;3.70;99.90
16728;DHT22;8482;54.396;18.590;2023-11-19T05:59:49;3.70;99.90
16728;DHT22;8482;54.396;18.590;2023-11-19T06:02:15;3.70;99.90
16728;DHT22;8482;54.396;18.590;2023-11-19T06:04:41;3.60;99.90
16728;DHT22;8482;54.396;18.590;2023-11-19T06:07:09;3.60;99.90
16728;DHT22;8482;54.396;18.590;2023-11-19T06:09:35;3.60;99.90
16728;DHT22;8482;54.396;18.590;2023-11-19T06:12:01;3.60;99.90
16728;DHT22;8482;54.396;18.590;2023-11-19T06:14:31;3.60;99.90
16728;DHT22;8482;54.396;18.590;2023-11-19T06:16:57;3.60;99.90
16728;DHT22;8482;54.396;18.590;2023-11-19T06:19:23;3.50;99.90
16728;DHT22;8482;54.396;18.590;2023-11-19T06:21:50;3.50;99.90
16728;DHT22;8482;54.396;18.590;2023-11-19T06:24:16;3.50;99.90
16728;DHT22;8482;54.396;18.590;2023-11-19T06:26:42;3.50;99.90
16728;DHT22;8482;54.396;18.590;2023-11-19T06:29:08;3.50;99.90
16728;DHT22;8482;54.396;18.590;2023-11-19T06:31:34;3.50;99.90
16728;DHT22;8482;54.396;18.590;2023-11-19T06:34:00;3.50;99.90
16728;DHT22;8482;54.396;18.590;2023-11-19T06:36:26;3.50;99.90
16728;DHT22;8482;54.396;18.590;2023-11-19T06:38:52;3.50;99.90
16728;DHT22;8482;54.396;18.590;2023-11-19T06:41:18;3.50;99.90
16728;DHT22;8482;54.396;18.590;2023-11-19T06:43:43;3.50;99.90
16728;DHT22;8482;54.396;18.590;2023-11-19T06:46:16;3.40;99.90
16728;DHT22;8482;54.396;18.590;2023-11-19T06:48:43;3.40;99.90
16728;DHT22;8482;54.396;18.590;2023-11-19T06:51:10;3.40;99.90
16728;DHT22;8482;54.396;18.590;2023-11-19T06:53:36;3.40;99.90
16728;DHT22;8482;54.396;18.590;2023-11-19T06:56:02;3.40;99.90
16728;DHT22;8482;54.396;18.590;2023-11-19T06:58:35;3.40;99.90
16728;DHT22;8482;54.396;18.590;2023-11-19T07:01:01;3.40;99.90
16728;DHT22;8482;54.396;18.590;2023-11-19T07:03:27;3.40;99.90
16728;DHT22;8482;54.396;18.590;2023-11-19T07:05:52;3.40;99.90
16728;DHT22;8482;54.396;18.590;2023-11-19T07:08:19;3.40;99.90
16728;DHT22;8482;54.396;18.590;2023-11-19T07:10:45;3.40;99.90
16728;DHT22;8482;54.396;18.590;2023-11-19T07:13:12;3.40;99.90
16728;DHT22;8482;54.396;18.590;2023-11-19T07:15:38;3.40;99.90
16728;DHT22;8482;54.396;18.590;2023-11-19T07:18:04;3.40;99.90
16728;DHT22;8482;54.396;18.590;2023-11-19T07:20:30;3.40;99.90
16728;DHT22;8482;54.396;18.590;2023-11-19T07:22:56;3.50;99.90
16728;DHT22;8482;54.396;18.590;2023-11-19T07:25:22;3.50;99.90
16728;DHT22;8482;54.396;18.590;2023-11-19T07:27:49;3.50;99.90
16728;DHT22;8482;54.396;18.590;2023-11-19T07:30:14;3.50;99.90
16728;DHT22;8482;54.396;18.590;2023-11-19T07:32:40;3.50;99.90
16728;DHT22;8482;54.396;18.590;2023-11-19T07:35:06;3.50;99.90
16728;DHT22;8482;54.396;18.590;2023-11-19T07:37:32;3.50;99.90
16728;DHT22;8482;54.396;18.590;2023-11-19T07:39:58;3.50;99.90
16728;DHT22;8482;54.396;18.590;2023-11-19T07:42:24;3.60;99.90
16728;DHT22;8482;54.396;18.590;2023-11-19T07:44:50;3.60;99.90
16728;DHT22;8482;54.396;18.590;2023-11-19T07:47:16;3.60;99.90
16728;DHT22;8482;54.396;18.590;2023-11-19T07:49:42;3.60;99.90
16728;DHT22;8482;54.396;18.590;2023-11-19T07:52:09;3.70;99.90
16728;DHT22;8482;54.396;18.590;2023-11-19T07:54:35;3.70;99.90
16728;DHT22;8482;54.396;18.590;2023-11-19T07:57:01;3.70;99.90
16728;DHT22;8482;54.396;18.590;2023-11-19T07:59:26;3.70;99.90
16728;DHT22;8482;54.396;18.590;2023-11-19T08:01:52;3.70;99.90
16728;DHT22;8482;54.396;18.590;2023-11-19T08:04:18;3.80;99.90
16728;DHT22;8482;54.396;18.590;2023-11-19T08:06:44;3.80;99.90
16728;DHT22;8482;54.396;18.590;2023-11-19T08:09:11;3.80;99.90
16728;DHT22;8482;54.396;18.590;2023-11-19T08:11:40;3.80;99.90
16728;DHT22;8482;54.396;18.590;2023-11-19T08:14:06;3.80;99.90
16728;DHT22;8482;54.396;18.590;2023-11-19T08:16:32;3.80;99.90
16728;DHT22;8482;54.396;18.590;2023-11-19T08:18:58;3.80;99.90
16728;DHT22;8482;54.396;18.590;2023-11-19T08:21:24;3.90;99.90
16728;DHT22;8482;54.396;18.590;2023-11-19T08:23:52;3.90;99.90
16728;DHT22;8482;54.396;18.590;2023-11-19T08:26:18;3.90;99.90
16728;DHT22;8482;54.396;18.590;2023-11-19T08:28:44;4.00;99.90
16728;DHT22;8482;54.396;18.590;2023-11-19T08:31:10;4.00;99.90
16728;DHT22;8482;54.396;18.590;2023-11-19T08:33:36;4.00;99.90
16728;DHT22;8482;54.396;18.590;2023-11-19T08:36:01;4.10;99.90
16728;DHT22;8482;54.396;18.590;2023-11-19T08:38:29;4.10;99.90
16728;DHT22;8482;54.396;18.590;2023-11-19T08:40:55;4.10;99.90
16728;DHT22;8482;54.396;18.590;2023-11-19T08:43:26;4.10;99.90
16728;DHT22;8482;54.396;18.590;2023-11-19T08:45:52;4.10;99.90
16728;DHT22;8482;54.396;18.590;2023-11-19T08:48:18;4.10;99.90
16728;DHT22;8482;54.396;18.590;2023-11-19T08:50:43;4.10;99.90
16728;DHT22;8482;54.396;18.590;2023-11-19T08:53:09;4.10;99.90
16728;DHT22;8482;54.396;18.590;2023-11-19T08:55:35;4.00;99.90
16728;DHT22;8482;54.396;18.590;2023-11-19T08:58:01;4.10;99.90
16728;DHT22;8482;54.396;18.590;2023-11-19T09:00:27;4.00;99.90
16728;DHT22;8482;54.396;18.590;2023-11-19T09:02:53;4.10;99.90
16728;DHT22;8482;54.396;18.590;2023-11-19T09:05:19;4.10;99.90
16728;DHT22;8482;54.396;18.590;2023-11-19T09:07:44;4.10;99.90
16728;DHT22;8482;54.396;18.590;2023-11-19T09:10:10;4.10;99.90
16728;DHT22;8482;54.396;18.590;2023-11-19T09:12:37;4.20;99.90
16728;DHT22;8482;54.396;18.590;2023-11-19T09:15:03;4.20;99.90
16728;DHT22;8482;54.396;18.590;2023-11-19T09:17:29;4.20;99.90
16728;DHT22;8482;54.396;18.590;2023-11-19T09:19:55;4.20;99.90
16728;DHT22;8482;54.396;18.590;2023-11-19T09:22:21;4.20;99.90
16728;DHT22;8482;54.396;18.590;2023-11-19T09:24:47;4.30;99.90
16728;DHT22;8482;54.396;18.590;2023-11-19T09:27:13;4.30;99.90
16728;DHT22;8482;54.396;18.590;2023-11-19T09:29:39;4.40;99.90
16728;DHT22;8482;54.396;18.590;2023-11-19T09:32:05;4.40;99.90
16728;DHT22;8482;54.396;18.590;2023-11-19T09:34:32;4.40;99.90
16728;DHT22;8482;54.396;18.590;2023-11-19T09:36:58;4.40;99.90
16728;DHT22;8482;54.396;18.590;2023-11-19T09:39:24;4.40;99.90
16728;DHT22;8482;54.396;18.590;2023-11-19T09:41:51;4.40;99.90
16728;DHT22;8482;54.396;18.590;2023-11-19T09:44:17;4.40;99.90
16728;DHT22;8482;54.396;18.590;2023-11-19T09:46:44;4.40;99.90
16728;DHT22;8482;54.396;18.590;2023-11-19T09:49:11;4.40;99.90
16728;DHT22;8482;54.396;18.590;2023-11-19T09:51:39;4.40;99.90
16728;DHT22;8482;54.396;18.590;2023-11-19T09:54:05;4.50;99.90
16728;DHT22;8482;54.396;18.590;2023-11-19T09:56:33;4.50;99.90
16728;DHT22;8482;54.396;18.590;2023-11-19T09:59:02;4.50;99.90
16728;DHT22;8482;54.396;18.590;2023-11-19T10:01:28;4.50;99.90
16728;DHT22;8482;54.396;18.590;2023-11-19T10:03:55;4.50;99.90
16728;DHT22;8482;54.396;18.590;2023-11-19T10:06:21;4.50;99.90
16728;DHT22;8482;54.396;18.590;2023-11-19T10:08:48;4.50;99.90
16728;DHT22;8482;54.396;18.590;2023-11-19T10:11:14;4.50;99.90
16728;DHT22;8482;54.396;18.590;2023-11-19T10:13:40;4.50;99.90
16728;DHT22;8482;54.396;18.590;2023-11-19T10:16:14;4.50;99.90
16728;DHT22;8482;54.396;18.590;2023-11-19T10:18:48;4.40;99.90
16728;DHT22;8482;54.396;18.590;2023-11-19T10:21:18;4.50;99.90
16728;DHT22;8482;54.396;18.590;2023-11-19T10:23:52;4.40;99.90
16728;DHT22;8482;54.396;18.590;2023-11-19T10:26:22;4.40;99.90
16728;DHT22;8482;54.396;18.590;2023-11-19T10:28:49;4.40;99.90
16728;DHT22;8482;54.396;18.590;2023-11-19T10:31:16;4.40;99.90
16728;DHT22;8482;54.396;18.590;2023-11-19T10:33:44;4.40;99.90
16728;DHT22;8482;54.396;18.590;2023-11-19T10:36:11;4.30;99.90
16728;DHT22;8482;54.396;18.590;2023-11-19T10:38:38;4.30;99.90
16728;DHT22;8482;54.396;18.590;2023-11-19T10:41:06;4.30;99.90
16728;DHT22;8482;54.396;18.590;2023-11-19T10:43:45;4.30;99.90
16728;DHT22;8482;54.396;18.590;2023-11-19T10:46:14;4.30;99.90
16728;DHT22;8482;54.396;18.590;2023-11-19T10:48:40;4.30;99.90
16728;DHT22;8482;54.396;18.590;2023-11-19T10:51:07;4.30;99.90
16728;DHT22;8482;54.396;18.590;2023-11-19T10:53:38;4.30;99.90
16728;DHT22;8482;54.396;18.590;2023-11-19T10:56:10;4.30;99.90
16728;DHT22;8482;54.396;18.590;2023-11-19T10:58:37;4.30;99.90
16728;DHT22;8482;54.396;18.590;2023-11-19T11:01:18;4.30;99.90
16728;DHT22;8482;54.396;18.590;2023-11-19T11:03:46;4.30;99.90
16728;DHT22;8482;54.396;18.590;2023-11-19T11:06:13;4.30;99.90
16728;DHT22;8482;54.396;18.590;2023-11-19T11:08:39;4.30;99.90
16728;DHT22;8482;54.396;18.590;2023-11-19T11:11:07;4.30;99.90
16728;DHT22;8482;54.396;18.590;2023-11-19T11:13:33;4.30;99.90
16728;DHT22;8482;54.396;18.590;2023-11-19T11:16:04;4.30;99.90
16728;DHT22;8482;54.396;18.590;2023-11-19T11:18:33;4.40;99.90
16728;DHT22;8482;54.396;18.590;2023-11-19T11:21:02;4.40;99.90
16728;DHT22;8482;54.396;18.590;2023-11-19T11:23:53;4.40;99.90
16728;DHT22;8482;54.396;18.590;2023-11-19T11:32:48;4.40;99.90
16728;DHT22;8482;54.396;18.590;2023-11-19T11:35:53;4.40;99.90
16728;DHT22;8482;54.396;18.590;2023-11-19T11:38:34;4.50;99.90
16728;DHT22;8482;54.396;18.590;2023-11-19T11:41:21;4.50;99.90
16728;DHT22;8482;54.396;18.590;2023-11-19T11:43:50;4.40;99.90
16728;DHT22;8482;54.396;18.590;2023-11-19T11:49:08;4.50;99.90
16728;DHT22;8482;54.396;18.590;2023-11-19T11:54:11;4.50;99.90
16728;DHT22;8482;54.396;18.590;2023-11-19T11:57:26;4.50;99.90
16728;DHT22;8482;54.396;18.590;2023-11-19T12:00:02;4.40;99.90
16728;DHT22;8482;54.396;18.590;2023-11-19T12:02:30;4.40;99.90
16728;DHT22;8482;54.396;18.590;2023-11-19T12:04:56;4.40;99.90
16728;DHT22;8482;54.396;18.590;2023-11-19T12:07:24;4.40;99.90
16728;DHT22;8482;54.396;18.590;2023-11-19T12:10:06;4.40;99.90
16728;DHT22;8482;54.396;18.590;2023-11-19T12:12:33;4.50;99.90
16728;DHT22;8482;54.396;18.590;2023-11-19T12:15:04;4.50;99.90
16728;DHT22;8482;54.396;18.590;2023-11-19T12:17:47;4.40;99.90
16728;DHT22;8482;54.396;18.590;2023-11-19T12:20:15;4.40;99.90
16728;DHT22;8482;54.396;18.590;2023-11-19T12:22:43;4.50;99.90
16728;DHT22;8482;54.396;18.590;2023-11-19T12:25:11;4.50;99.90
16728;DHT22;8482;54.396;18.590;2023-11-19T12:27:46;4.50;99.90
16728;DHT22;8482;54.396;18.590;2023-11-19T12:30:17;4.50;99.90
16728;DHT22;8482;54.396;18.590;2023-11-19T12:32:50;4.60;99.90
16728;DHT22;8482;54.396;18.590;2023-11-19T12:35:19;4.50;99.90
16728;DHT22;8482;54.396;18.590;2023-11-19T12:37:51;4.50;99.90
16728;DHT22;8482;54.396;18.590;2023-11-19T12:40:21;4.60;99.90
16728;DHT22;8482;54.396;18.590;2023-11-19T12:42:49;4.60;99.90
16728;DHT22;8482;54.396;18.590;2023-11-19T12:45:16;4.50;99.90
16728;DHT22;8482;54.396;18.590;2023-11-19T12:47:43;4.50;99.90
16728;DHT22;8482;54.396;18.590;2023-11-19T12:50:10;4.50;99.90
16728;DHT22;8482;54.396;18.590;2023-11-19T12:52:37;4.50;99.90
16728;DHT22;8482;54.396;18.590;2023-11-19T12:55:26;4.50;99.90
16728;DHT22;8482;54.396;18.590;2023-11-19T12:57:53;4.50;99.90
16728;DHT22;8482;54.396;18.590;2023-11-19T13:00:25;4.50;99.90
16728;DHT22;8482;54.396;18.590;2023-11-19T13:02:53;4.50;99.90
16728;DHT22;8482;54.396;18.590;2023-11-19T13:05:25;4.50;99.90
16728;DHT22;8482;54.396;18.590;2023-11-19T13:10:29;4.50;99.90
16728;DHT22;8482;54.396;18.590;2023-11-19T13:13:08;4.50;99.90
16728;DHT22;8482;54.396;18.590;2023-11-19T13:15:35;4.50;99.90
16728;DHT22;8482;54.396;18.590;2023-11-19T13:18:01;4.50;99.90
16728;DHT22;8482;54.396;18.590;2023-11-19T13:20:28;4.50;99.90
16728;DHT22;8482;54.396;18.590;2023-11-19T13:25:26;4.50;99.90
16728;DHT22;8482;54.396;18.590;2023-11-19T13:27:53;4.50;99.90
16728;DHT22;8482;54.396;18.590;2023-11-19T13:30:20;4.50;99.90
16728;DHT22;8482;54.396;18.590;2023-11-19T13:32:51;4.40;99.90
16728;DHT22;8482;54.396;18.590;2023-11-19T13:35:18;4.50;99.90
16728;DHT22;8482;54.396;18.590;2023-11-19T13:37:44;4.40;99.90
16728;DHT22;8482;54.396;18.590;2023-11-19T13:40:12;4.40;99.90
16728;DHT22;8482;54.396;18.590;2023-11-19T13:42:41;4.50;99.90
16728;DHT22;8482;54.396;18.590;2023-11-19T13:45:12;4.50;99.90
16728;DHT22;8482;54.396;18.590;2023-11-19T13:47:43;4.50;99.90
16728;DHT22;8482;54.396;18.590;2023-11-19T13:50:14;4.50;99.90
16728;DHT22;8482;54.396;18.590;2023-11-19T13:52:43;4.50;99.90
16728;DHT22;8482;54.396;18.590;2023-11-19T13:55:13;4.40;99.90
16728;DHT22;8482;54.396;18.590;2023-11-19T13:57:41;4.40;99.90
16728;DHT22;8482;54.396;18.590;2023-11-19T14:00:12;4.40;99.90
16728;DHT22;8482;54.396;18.590;2023-11-19T14:02:42;4.40;99.90
16728;DHT22;8482;54.396;18.590;2023-11-19T14:05:12;4.40;99.90
16728;DHT22;8482;54.396;18.590;2023-11-19T14:07:39;4.40;99.90
16728;DHT22;8482;54.396;18.590;2023-11-19T14:10:06;4.40;99.90
16728;DHT22;8482;54.396;18.590;2023-11-19T14:12:34;4.40;99.90
16728;DHT22;8482;54.396;18.590;2023-11-19T14:15:05;4.40;99.90
16728;DHT22;8482;54.396;18.590;2023-11-19T14:17:33;4.40;99.90
16728;DHT22;8482;54.396;18.590;2023-11-19T14:20:00;4.40;99.90
16728;DHT22;8482;54.396;18.590;2023-11-19T14:22:26;4.40;99.90
16728;DHT22;8482;54.396;18.590;2023-11-19T14:24:52;4.40;99.90
16728;DHT22;8482;54.396;18.590;2023-11-19T14:27:19;4.40;99.90
16728;DHT22;8482;54.396;18.590;2023-11-19T14:29:45;4.40;99.90
16728;DHT22;8482;54.396;18.590;2023-11-19T14:32:11;4.40;99.90
16728;DHT22;8482;54.396;18.590;2023-11-19T14:34:37;4.50;99.90
16728;DHT22;8482;54.396;18.590;2023-11-19T14:37:03;4.50;99.90
16728;DHT22;8482;54.396;18.590;2023-11-19T14:39:29;4.50;99.90
16728;DHT22;8482;54.396;18.590;2023-11-19T14:41:58;4.50;99.90
16728;DHT22;8482;54.396;18.590;2023-11-19T14:44:27;4.50;99.90
16728;DHT22;8482;54.396;18.590;2023-11-19T14:46:54;4.50;99.90
16728;DHT22;8482;54.396;18.590;2023-11-19T14:49:20;4.40;99.90
16728;DHT22;8482;54.396;18.590;2023-11-19T14:51:46;4.40;99.90
16728;DHT22;8482;54.396;18.590;2023-11-19T14:54:11;4.40;99.90
16728;DHT22;8482;54.396;18.590;2023-11-19T14:56:40;4.40;99.90
16728;DHT22;8482;54.396;18.590;2023-11-19T14:59:06;4.40;99.90
16728;DHT22;8482;54.396;18.590;2023-11-19T15:01:32;4.40;99.90
16728;DHT22;8482;54.396;18.590;2023-11-19T15:03:58;4.40;99.90
16728;DHT22;8482;54.396;18.590;2023-11-19T15:06:24;4.40;99.90
16728;DHT22;8482;54.396;18.590;2023-11-19T15:08:56;4.40;99.90
16728;DHT22;8482;54.396;18.590;2023-11-19T15:11:22;4.40;99.90
16728;DHT22;8482;54.396;18.590;2023-11-19T15:13:49;4.40;99.90
16728;DHT22;8482;54.396;18.590;2023-11-19T15:16:15;4.40;99.90
16728;DHT22;8482;54.396;18.590;2023-11-19T15:18:47;4.40;99.90
16728;DHT22;8482;54.396;18.590;2023-11-19T15:21:13;4.30;99.90
16728;DHT22;8482;54.396;18.590;2023-11-19T15:23:38;4.40;99.90
16728;DHT22;8482;54.396;18.590;2023-11-19T15:26:06;4.30;99.90
16728;DHT22;8482;54.396;18.590;2023-11-19T15:28:36;4.30;99.90
16728;DHT22;8482;54.396;18.590;2023-11-19T15:31:02;4.40;99.90
16728;DHT22;8482;54.396;18.590;2023-11-19T15:33:28;4.30;99.90
16728;DHT22;8482;54.396;18.590;2023-11-19T15:35:54;4.30;99.90
16728;DHT22;8482;54.396;18.590;2023-11-19T15:38:20;4.30;99.90
16728;DHT22;8482;54.396;18.590;2023-11-19T15:40:46;4.30;99.90
16728;DHT22;8482;54.396;18.590;2023-11-19T15:43:11;4.30;99.90
16728;DHT22;8482;54.396;18.590;2023-11-19T15:45:37;4.30;99.90
16728;DHT22;8482;54.396;18.590;2023-11-19T15:48:05;4.30;99.90
16728;DHT22;8482;54.396;18.590;2023-11-19T15:50:31;4.30;99.90
16728;DHT22;8482;54.396;18.590;2023-11-19T15:52:57;4.20;99.90
16728;DHT22;8482;54.396;18.590;2023-11-19T15:55:24;4.20;99.90
16728;DHT22;8482;54.396;18.590;2023-11-19T15:57:50;4.20;99.90
16728;DHT22;8482;54.396;18.590;2023-11-19T16:00:16;4.20;99.90
16728;DHT22;8482;54.396;18.590;2023-11-19T16:02:46;4.30;99.90
16728;DHT22;8482;54.396;18.590;2023-11-19T16:05:12;4.30;99.90